KAVX/AVX METAR and TAF weather

Enter ICAO airport designator
Station Type Date Time Source
KAVX METAR 2020/07/15 05:29 UTC NOAA

KAVX 150529Z AUTO 23005KT 1 1/4SM BR OVC002 14/13 A2999 RMK AO2 VIS 3/4V3 T01440128


Station Type Date Time Source
KAVX Decoded METAR 2020/07/15 05:29 UTC NOAA

AVALON CATALINA AIRPORT, CA, United States (KAVX) 33-24N 118-25W 482M
Jul 15, 2020 - 01:29 AM EDT / 2020.07.15 0529 UTC
Wind: from the SW (230 degrees) at 6 MPH (5 KT):0
Visibility: 1 1/4 mile(s):0
Sky conditions: overcast
Weather: mist
Temperature: 57.9 F (14.4 C)
Dew Point: 55.0 F (12.8 C)
Relative Humidity: 90%
Pressure (altimeter): 29.99 in. Hg (1015 hPa)
ob: KAVX 150529Z AUTO 23005KT 1 1/4SM BR OVC002 14/13 A2999 RMK AO2 VIS 3/4V3 T01440128
cycle: 5

Station Type Date Time Source
KAVX TAF UTC NOAA

Error!

Example: see airport list